aviador You're here:

KDTO Decoded Metar

DENTON in TX, USA
Report Time2017-07-21 07:53:00
UTC Time2017-07-21 08:41:37
Flight Rules vfr VFR
Wind150° at 05 kt
W.Decomp.*RWY 18: 4.1 kt HW 2.8 kt LCW
W.Rank150° ranks 3
Current wind is below 150° avg. (8.6)
Visibility9999 m
Phenomena:N/A
Clouds:N/A
Expected CloudBase > 1,600 ft AGL from Temp-Dew spread
CeilingNone
Temp26°C (ISA +12)
Dew Point22°C (79% RH)
QNH1016 hPa
Density Alt2,310 ft
Elevation643 ft
Report Wrong Elevation
Raw Report
KDTO 210753Z AUTO 15005KT 10SM CLR 26/22 A3000 RMK AO2 SLP148
T02560222=

Extra information for KDTO:More info

Metar Taf Metar & Taf Last 4 Metars F.Rules Stats Wind Profile Meteogram Temp Stats Airport Information Weather charts Add Link Nearby VenuesMetar ALERT Operation Metar Decoded Social comments

AIRNAV info for KDTO